LFGZ weather

Nuits St Georges Airport
Verdun, Burgundy, France

Public forecast

Using degrees Celsius for public forecast. Weather courtesy of forecast.io.

METAR (pilot weather report)

Closest report is Dijon-Bourgogne Airport, 9.0 nm (16.7 km) NNE. Retrieved 2019/09/23 14:30 UTC (0 seconds ago):

LFSD 231430Z AUTO VRB02KT CAVOK 20/10 Q1018

TAF (pilot weather forecast)

Forecast is more than 12 hours old.

Closest forecast is Dijon-Bourgogne Airport, 9.0 nm (16.7 km) NNE. Retrieved 2015/06/01 00:11 UTC (4 years ago):

TAF LFSD 010600Z 0100/0124 CNL